createdAt,value
2019-06-26T00:01:11.781Z,93.60
2019-06-26T00:04:17.036Z,93.90
2019-06-26T00:07:21.976Z,94.00
2019-06-26T00:10:27.075Z,94.00
2019-06-26T00:13:32.184Z,94.00
2019-06-26T00:16:37.397Z,94.00
2019-06-26T00:19:42.349Z,94.00
2019-06-26T00:22:47.266Z,94.00
2019-06-26T00:25:52.133Z,94.00
2019-06-26T00:28:57.026Z,93.90
2019-06-26T00:32:02.029Z,94.00
2019-06-26T00:35:07.001Z,94.00
2019-06-26T00:38:11.865Z,94.00
2019-06-26T00:41:16.786Z,94.00
2019-06-26T00:44:21.879Z,94.10
2019-06-26T00:47:26.900Z,94.00
2019-06-26T00:50:31.930Z,94.10
2019-06-26T00:53:37.037Z,94.10
2019-06-26T00:56:42.003Z,94.10
2019-06-26T00:59:47.101Z,94.10
2019-06-26T01:02:52.169Z,94.10
2019-06-26T01:05:57.409Z,94.30
2019-06-26T01:09:02.347Z,94.30
2019-06-26T01:12:07.478Z,94.20
2019-06-26T01:15:12.826Z,94.20
2019-06-26T01:18:17.686Z,94.20
2019-06-26T01:21:22.782Z,94.60
2019-06-26T01:24:28.085Z,94.50
2019-06-26T01:27:33.079Z,94.50
2019-06-26T01:30:38.127Z,94.50
2019-06-26T01:33:43.249Z,94.60
2019-06-26T01:36:48.434Z,94.50
2019-06-26T01:39:53.542Z,94.70
2019-06-26T01:42:58.533Z,94.70
2019-06-26T01:46:03.635Z,94.90
2019-06-26T01:49:08.651Z,95.00
2019-06-26T01:52:13.624Z,94.90
2019-06-26T01:55:18.697Z,94.80
2019-06-26T01:58:23.665Z,94.80
2019-06-26T02:01:28.444Z,94.80
2019-06-26T02:04:33.125Z,94.80
2019-06-26T02:07:38.092Z,94.80
2019-06-26T02:10:42.801Z,94.90
2019-06-26T02:13:47.886Z,95.20
2019-06-26T02:16:52.684Z,95.20
2019-06-26T02:19:57.747Z,95.10
2019-06-26T02:23:02.769Z,95.20
2019-06-26T02:26:07.816Z,95.10
2019-06-26T02:29:12.735Z,95.10
2019-06-26T02:32:17.951Z,95.00
2019-06-26T02:35:22.946Z,95.00
2019-06-26T02:38:27.910Z,95.00
2019-06-26T02:41:32.913Z,95.10
2019-06-26T02:44:52.457Z,95.10
2019-06-26T02:47:44.614Z,95.10
2019-06-26T02:50:49.472Z,95.30
2019-06-26T02:53:54.391Z,95.30
2019-06-26T02:56:59.358Z,95.30
2019-06-26T03:00:04.919Z,95.30
2019-06-26T03:03:10.122Z,95.30
2019-06-26T03:06:15.054Z,95.30
2019-06-26T03:09:19.926Z,95.30
2019-06-26T03:12:24.881Z,95.30
2019-06-26T03:15:30.065Z,95.40
2019-06-26T03:18:35.024Z,95.50
2019-06-26T03:21:40.122Z,95.60
2019-06-26T03:24:45.103Z,95.50
2019-06-26T03:27:49.917Z,95.50
2019-06-26T03:30:54.878Z,95.50
2019-06-26T03:33:59.553Z,95.50
2019-06-26T03:37:04.836Z,95.50
2019-06-26T03:40:10.376Z,95.60
2019-06-26T03:43:15.345Z,95.50
2019-06-26T03:46:20.263Z,95.50
2019-06-26T03:49:25.243Z,95.40
2019-06-26T03:52:30.555Z,95.50
2019-06-26T03:55:35.597Z,95.50
2019-06-26T03:58:40.508Z,95.40
2019-06-26T04:01:45.457Z,95.40
2019-06-26T04:04:50.601Z,95.40
2019-06-26T04:07:55.562Z,95.40
2019-06-26T04:11:00.665Z,95.40
2019-06-26T04:14:05.769Z,95.40
2019-06-26T04:17:10.665Z,95.60
2019-06-26T04:20:15.641Z,95.40
2019-06-26T04:23:20.940Z,95.30
2019-06-26T04:26:25.922Z,95.30
2019-06-26T04:29:30.900Z,95.10
2019-06-26T04:32:36.290Z,94.90
2019-06-26T04:35:41.491Z,94.80
2019-06-26T04:38:46.380Z,94.70
2019-06-26T04:41:51.376Z,94.60
2019-06-26T04:44:56.513Z,94.50
2019-06-26T04:48:01.470Z,94.20
2019-06-26T04:51:06.592Z,94.20
2019-06-26T04:54:11.707Z,94.00
2019-06-26T04:57:16.685Z,93.80
2019-06-26T05:00:22.060Z,93.60
2019-06-26T05:03:27.192Z,93.30
2019-06-26T05:06:32.322Z,93.20
2019-06-26T05:09:37.400Z,92.80
2019-06-26T05:12:42.295Z,92.70
2019-06-26T05:15:47.530Z,92.30
2019-06-26T05:18:52.471Z,92.30
2019-06-26T05:21:57.744Z,92.20
2019-06-26T05:25:02.725Z,92.10
2019-06-26T05:28:08.588Z,91.90
2019-06-26T05:31:13.722Z,91.40
2019-06-26T05:34:18.723Z,91.40
2019-06-26T05:37:23.802Z,91.40
2019-06-26T05:40:28.842Z,91.10
2019-06-26T05:43:33.701Z,90.60
2019-06-26T05:46:38.671Z,90.40
2019-06-26T05:49:43.700Z,90.20
2019-06-26T05:52:48.837Z,90.00
2019-06-26T05:55:54.156Z,89.70
2019-06-26T05:58:59.080Z,88.80
2019-06-26T06:02:04.042Z,88.60
2019-06-26T06:05:09.089Z,88.40
2019-06-26T06:08:14.122Z,87.50
2019-06-26T06:11:18.989Z,86.60
2019-06-26T06:14:23.898Z,86.20
2019-06-26T06:17:28.959Z,85.50
2019-06-26T06:20:38.350Z,84.80
2019-06-26T06:23:43.921Z,82.50
2019-06-26T06:26:48.857Z,81.20
2019-06-26T06:29:53.706Z,80.00
2019-06-26T06:32:58.632Z,78.90
2019-06-26T06:36:03.705Z,76.80
2019-06-26T06:39:08.793Z,75.00
2019-06-26T06:42:13.776Z,72.10
2019-06-26T06:45:18.781Z,69.60
2019-06-26T06:48:23.841Z,67.30
2019-06-26T06:51:28.962Z,67.00
2019-06-26T06:54:33.934Z,63.50
2019-06-26T06:57:38.975Z,61.30
2019-06-26T07:00:44.247Z,58.90
2019-06-26T07:03:49.113Z,57.10
2019-06-26T07:06:54.170Z,54.60
2019-06-26T07:09:59.288Z,52.60
2019-06-26T07:13:04.272Z,51.30
2019-06-26T07:16:09.103Z,49.60
2019-06-26T07:19:14.021Z,47.50
2019-06-26T07:22:19.048Z,45.10
2019-06-26T07:25:24.193Z,44.20
2019-06-26T07:28:28.881Z,43.20
2019-06-26T07:31:33.597Z,42.10
2019-06-26T07:34:38.330Z,41.40
2019-06-26T07:37:43.030Z,40.30
2019-06-26T07:40:47.721Z,39.10
2019-06-26T07:43:52.439Z,38.80
2019-06-26T07:46:57.153Z,40.00
2019-06-26T07:50:02.010Z,41.50
2019-06-26T07:53:06.757Z,42.30
2019-06-26T07:56:11.578Z,43.00
2019-06-26T07:59:16.289Z,43.60
2019-06-26T08:02:21.096Z,43.70
2019-06-26T08:05:25.841Z,45.30
2019-06-26T08:08:30.621Z,46.40
2019-06-26T08:11:35.286Z,46.80
2019-06-26T08:14:40.010Z,47.60
2019-06-26T08:17:59.229Z,49.80
2019-06-26T08:21:07.464Z,50.30
2019-06-26T08:23:58.199Z,51.20
2019-06-26T08:27:02.975Z,51.60
2019-06-26T08:30:08.133Z,53.00
2019-06-26T08:33:12.914Z,52.40
2019-06-26T08:36:17.746Z,53.10
2019-06-26T08:39:22.423Z,54.30
2019-06-26T08:42:27.153Z,55.00
2019-06-26T08:45:31.955Z,55.50
2019-06-26T08:48:39.927Z,55.60
2019-06-26T08:51:43.238Z,54.90
2019-06-26T08:54:48.279Z,53.90
2019-06-26T08:57:53.276Z,54.00
2019-06-26T09:00:58.565Z,53.20
2019-06-26T09:04:03.614Z,49.40
2019-06-26T09:07:08.817Z,49.60
2019-06-26T09:10:16.784Z,50.20
2019-06-26T09:13:21.493Z,50.90
2019-06-26T09:16:26.595Z,49.50
2019-06-26T09:19:31.533Z,50.10
2019-06-26T09:22:36.638Z,49.70
2019-06-26T09:25:41.653Z,48.10
2019-06-26T09:28:46.510Z,47.40
2019-06-26T09:31:51.730Z,48.00
2019-06-26T09:34:56.595Z,48.80
2019-06-26T09:38:01.794Z,48.30
2019-06-26T09:41:06.944Z,47.60
2019-06-26T09:44:11.969Z,48.30
2019-06-26T09:47:16.986Z,48.20
2019-06-26T09:50:22.482Z,48.20
2019-06-26T09:53:27.553Z,48.30
2019-06-26T09:56:32.442Z,47.90
2019-06-26T09:59:37.506Z,48.80
2019-06-26T10:02:42.565Z,48.60
2019-06-26T10:05:47.617Z,48.50
2019-06-26T10:08:54.255Z,47.90
2019-06-26T10:11:59.643Z,48.80
2019-06-26T10:15:05.029Z,48.10
2019-06-26T10:18:10.076Z,45.50
2019-06-26T10:21:15.024Z,45.80
2019-06-26T10:24:20.177Z,46.50
2019-06-26T10:27:25.555Z,45.10
2019-06-26T10:30:30.638Z,45.50
2019-06-26T10:33:35.626Z,45.80
2019-06-26T10:36:40.677Z,43.00
2019-06-26T10:39:45.692Z,44.00
2019-06-26T10:42:50.969Z,44.90
2019-06-26T10:45:56.079Z,44.50
2019-06-26T10:49:01.078Z,44.10
2019-06-26T10:52:06.064Z,43.20
2019-06-26T10:55:11.564Z,43.10
2019-06-26T10:58:16.617Z,42.30
2019-06-26T11:01:22.283Z,42.90
2019-06-26T11:04:27.518Z,43.70
2019-06-26T11:07:36.257Z,43.10
2019-06-26T11:10:39.355Z,44.70
2019-06-26T11:13:44.439Z,43.40
2019-06-26T11:16:49.649Z,43.80
2019-06-26T11:19:55.708Z,42.60
2019-06-26T11:23:00.854Z,42.60
2019-06-26T11:26:05.893Z,43.70
2019-06-26T11:29:10.992Z,45.10
2019-06-26T11:32:15.982Z,46.50
2019-06-26T11:35:21.008Z,45.90
2019-06-26T11:38:25.890Z,44.90
2019-06-26T11:41:31.077Z,43.70
2019-06-26T11:44:36.215Z,43.10
2019-06-26T11:47:45.374Z,42.20
2019-06-26T11:50:48.397Z,41.50
2019-06-26T11:53:53.689Z,41.40
2019-06-26T11:56:58.726Z,41.10
2019-06-26T12:00:04.147Z,39.00
2019-06-26T12:03:13.009Z,39.20
2019-06-26T12:06:19.228Z,40.40
2019-06-26T12:09:22.863Z,40.20
2019-06-26T12:12:28.187Z,41.00
2019-06-26T12:15:33.111Z,41.50
2019-06-26T12:18:38.122Z,42.40
2019-06-26T12:21:43.235Z,43.60
2019-06-26T12:24:48.169Z,43.40
2019-06-26T12:27:53.574Z,42.80
2019-06-26T12:30:59.093Z,42.50
2019-06-26T12:34:04.049Z,42.70
2019-06-26T12:37:10.098Z,42.30
2019-06-26T12:40:16.310Z,42.30
2019-06-26T12:43:21.167Z,42.10
2019-06-26T12:46:26.223Z,42.90
2019-06-26T12:49:31.242Z,42.80
2019-06-26T12:52:36.175Z,42.20
2019-06-26T12:55:41.230Z,42.60
2019-06-26T12:58:49.191Z,42.80
2019-06-26T13:01:54.297Z,42.80
2019-06-26T13:04:59.421Z,43.50
2019-06-26T13:08:04.445Z,42.80
2019-06-26T13:11:09.423Z,44.00
2019-06-26T13:14:14.480Z,43.60
2019-06-26T13:17:19.518Z,43.70
2019-06-26T13:20:24.570Z,44.70
2019-06-26T13:23:29.565Z,44.90
2019-06-26T13:26:34.719Z,45.40
2019-06-26T13:29:39.814Z,45.40
2019-06-26T13:32:44.997Z,46.00
2019-06-26T13:35:50.288Z,46.40
2019-06-26T13:38:55.251Z,46.70
2019-06-26T13:42:00.278Z,46.60
2019-06-26T13:45:05.290Z,47.10
2019-06-26T13:48:10.241Z,46.90
2019-06-26T13:51:15.350Z,47.50
2019-06-26T13:54:20.366Z,47.40
2019-06-26T13:57:25.499Z,47.90
2019-06-26T14:00:30.549Z,47.40
2019-06-26T14:03:35.512Z,47.70
2019-06-26T14:06:40.677Z,47.80
2019-06-26T14:09:45.676Z,48.00
2019-06-26T14:12:50.517Z,47.40
2019-06-26T14:15:55.607Z,46.60
2019-06-26T14:19:00.629Z,47.40
2019-06-26T14:22:12.173Z,47.70
2019-06-26T14:25:16.123Z,47.80
2019-06-26T14:28:21.228Z,46.90
2019-06-26T14:31:26.256Z,47.60
2019-06-26T14:34:31.407Z,48.20
2019-06-26T14:37:36.846Z,47.00
2019-06-26T14:40:44.516Z,47.30
2019-06-26T14:43:52.729Z,47.10
2019-06-26T14:46:59.522Z,47.00
2019-06-26T14:50:04.658Z,47.40
2019-06-26T14:53:09.831Z,47.50
2019-06-26T14:56:14.797Z,47.10
2019-06-26T14:59:21.005Z,46.70
2019-06-26T15:02:26.272Z,47.00
2019-06-26T15:05:31.319Z,46.50
2019-06-26T15:08:36.795Z,46.70
2019-06-26T15:11:41.839Z,46.70
2019-06-26T15:14:46.960Z,47.10
2019-06-26T15:17:52.026Z,47.40
2019-06-26T15:20:57.231Z,46.90
2019-06-26T15:24:02.295Z,46.80
2019-06-26T15:27:08.712Z,46.80
2019-06-26T15:30:13.962Z,47.10
2019-06-26T15:33:19.053Z,47.50
2019-06-26T15:36:24.342Z,47.70
2019-06-26T15:39:30.709Z,47.80
2019-06-26T15:42:35.689Z,47.80
2019-06-26T15:45:41.196Z,47.60
2019-06-26T15:48:49.423Z,48.00
2019-06-26T15:51:52.961Z,48.40
2019-06-26T15:54:57.968Z,48.30
2019-06-26T15:58:03.250Z,48.80
2019-06-26T16:01:09.119Z,49.30
2019-06-26T16:04:14.169Z,48.90
2019-06-26T16:07:19.283Z,48.50
2019-06-26T16:10:24.361Z,48.00
2019-06-26T16:13:30.098Z,48.70
2019-06-26T16:16:36.927Z,48.00
2019-06-26T16:19:41.837Z,48.00
2019-06-26T16:22:46.954Z,48.10
2019-06-26T16:25:52.046Z,47.40
2019-06-26T16:28:57.778Z,48.00
2019-06-26T16:32:02.624Z,48.30
2019-06-26T16:35:12.095Z,48.70
2019-06-26T16:38:15.865Z,48.90
2019-06-26T16:41:20.960Z,48.40
2019-06-26T16:44:25.959Z,48.90
2019-06-26T16:47:31.335Z,49.70
2019-06-26T16:50:36.320Z,50.00
2019-06-26T16:53:41.348Z,50.10
2019-06-26T16:56:46.431Z,49.90
2019-06-26T17:00:05.035Z,51.00
2019-06-26T17:02:58.438Z,50.80
2019-06-26T17:06:03.526Z,51.00
2019-06-26T17:09:09.487Z,51.20
2019-06-26T17:12:14.751Z,51.10
2019-06-26T17:15:19.962Z,51.50
2019-06-26T17:18:25.186Z,51.20
2019-06-26T17:21:30.236Z,51.90
2019-06-26T17:24:35.437Z,51.90
2019-06-26T17:27:40.557Z,51.60
2019-06-26T17:30:45.764Z,52.40
2019-06-26T17:33:50.831Z,52.50
2019-06-26T17:36:56.771Z,53.00
2019-06-26T17:40:01.738Z,53.20
2019-06-26T17:43:12.179Z,53.60
2019-06-26T17:46:13.853Z,54.10
2019-06-26T17:49:19.419Z,54.50
2019-06-26T17:52:24.382Z,55.30
2019-06-26T17:55:29.654Z,55.50
2019-06-26T17:58:34.460Z,56.10
2019-06-26T18:01:39.244Z,56.20
2019-06-26T18:04:44.046Z,56.50
2019-06-26T18:07:48.894Z,56.60
2019-06-26T18:10:53.686Z,56.70
2019-06-26T18:13:58.430Z,57.00
2019-06-26T18:17:03.577Z,57.30
2019-06-26T18:20:09.016Z,57.20
2019-06-26T18:23:14.068Z,56.70
2019-06-26T18:26:19.167Z,56.90
2019-06-26T18:29:24.225Z,57.20
2019-06-26T18:32:29.265Z,57.50
2019-06-26T18:35:34.309Z,57.60
2019-06-26T18:38:39.390Z,57.80
2019-06-26T18:41:44.265Z,58.00
2019-06-26T18:44:49.500Z,58.30
2019-06-26T18:47:54.641Z,58.80
2019-06-26T18:50:59.590Z,58.90
2019-06-26T18:54:05.561Z,59.20
2019-06-26T18:57:10.415Z,59.30
2019-06-26T19:00:16.373Z,59.80
2019-06-26T19:03:21.586Z,60.60
2019-06-26T19:06:26.559Z,61.70
2019-06-26T19:09:31.640Z,62.50
2019-06-26T19:12:36.578Z,62.90
2019-06-26T19:15:41.526Z,63.40
2019-06-26T19:18:46.624Z,63.80
2019-06-26T19:21:51.757Z,64.50
2019-06-26T19:24:57.397Z,65.30
2019-06-26T19:28:02.489Z,66.50
2019-06-26T19:31:07.644Z,67.40
2019-06-26T19:34:12.897Z,68.20
2019-06-26T19:37:18.147Z,69.00
2019-06-26T19:40:24.279Z,69.70
2019-06-26T19:43:29.627Z,70.40
2019-06-26T19:46:34.780Z,71.10
2019-06-26T19:49:40.284Z,71.60
2019-06-26T19:52:45.851Z,72.20
2019-06-26T19:55:50.828Z,72.80
2019-06-26T19:58:56.514Z,73.40
2019-06-26T20:02:01.720Z,73.90
2019-06-26T20:05:06.948Z,74.30
2019-06-26T20:08:12.067Z,74.80
2019-06-26T20:11:17.046Z,75.00
2019-06-26T20:14:23.189Z,75.50
2019-06-26T20:17:28.363Z,76.00
2019-06-26T20:20:33.476Z,76.30
2019-06-26T20:23:38.730Z,76.70
2019-06-26T20:26:43.657Z,77.00
2019-06-26T20:29:48.778Z,77.30
2019-06-26T20:32:53.757Z,77.70
2019-06-26T20:35:58.800Z,77.90
2019-06-26T20:39:04.864Z,78.50
2019-06-26T20:42:09.736Z,79.20
2019-06-26T20:45:15.485Z,79.90
2019-06-26T20:48:20.469Z,80.20
2019-06-26T20:51:25.451Z,80.20
2019-06-26T20:54:30.495Z,80.20
2019-06-26T20:57:35.546Z,80.10
2019-06-26T21:00:40.636Z,80.80
2019-06-26T21:03:45.638Z,81.50
2019-06-26T21:06:50.663Z,81.70
2019-06-26T21:09:55.710Z,81.60
2019-06-26T21:13:00.694Z,81.40
2019-06-26T21:16:05.731Z,81.90
2019-06-26T21:19:10.683Z,82.20
2019-06-26T21:22:15.839Z,82.20
2019-06-26T21:25:20.868Z,82.20
2019-06-26T21:28:26.083Z,82.30
2019-06-26T21:31:31.405Z,82.30
2019-06-26T21:34:36.442Z,82.80
2019-06-26T21:37:41.707Z,83.70
2019-06-26T21:40:47.100Z,83.80
2019-06-26T21:43:51.993Z,84.00
2019-06-26T21:46:57.169Z,84.10
2019-06-26T21:50:02.496Z,84.20
2019-06-26T21:53:07.488Z,84.40
2019-06-26T21:56:12.612Z,84.30
2019-06-26T21:59:17.407Z,84.40
2019-06-26T22:02:22.444Z,84.90
2019-06-26T22:05:27.681Z,84.90
2019-06-26T22:08:32.815Z,85.20
2019-06-26T22:11:38.059Z,85.50
2019-06-26T22:14:42.992Z,85.50
2019-06-26T22:17:48.153Z,85.40
2019-06-26T22:20:53.107Z,85.80
2019-06-26T22:23:58.232Z,85.80
2019-06-26T22:27:03.086Z,86.40
2019-06-26T22:30:08.917Z,86.40
2019-06-26T22:33:13.966Z,86.70
2019-06-26T22:36:19.207Z,86.80
2019-06-26T22:39:24.145Z,87.20
2019-06-26T22:42:29.401Z,87.20
2019-06-26T22:45:34.251Z,87.30
2019-06-26T22:48:39.291Z,87.30
2019-06-26T22:51:44.370Z,87.60
2019-06-26T22:54:49.331Z,87.90
2019-06-26T22:57:54.455Z,87.90
2019-06-26T23:00:59.594Z,88.30
2019-06-26T23:04:04.537Z,88.00
2019-06-26T23:07:09.448Z,88.20
2019-06-26T23:10:14.924Z,88.40
2019-06-26T23:13:20.081Z,88.60
2019-06-26T23:16:25.050Z,88.70
2019-06-26T23:19:30.104Z,89.10
2019-06-26T23:22:35.270Z,89.40
2019-06-26T23:25:40.365Z,89.80
2019-06-26T23:28:45.283Z,89.60
2019-06-26T23:31:50.361Z,89.60
2019-06-26T23:34:55.367Z,89.90
2019-06-26T23:38:00.535Z,89.70
2019-06-26T23:41:05.553Z,89.80
2019-06-26T23:44:10.787Z,89.60
2019-06-26T23:47:15.803Z,89.80
2019-06-26T23:50:21.066Z,89.70
2019-06-26T23:53:26.017Z,89.90
2019-06-26T23:56:39.975Z,89.90
2019-06-26T23:59:37.520Z,89.90
